Home PIREPS Pireps

Flight BEL7010

  • Submitted By: Johan Willems
  • Departure Airport: Rhein-Main-Flughafen Frankfurt am Main (EDDF)
  • Arrival Airport: Bruxelles National (EBBR)
  • Aircraft: A319-112 (OO-SSG)
  • Flight Time: 01.08
  • Date Submitted: 13/04/2015
  • Status: Accepted
Flight Details
Gross Revenue:
(110 load / € 41.00 per unit
€ 4,510.00
Fuel Cost:
(8549 fuel used @ 5.1 / unit)
€ 43,599.90

Additional Log Information:

View Log

Aircraft Used in flight is Airbus A320 brussels
14:58 Brakes are On
14:59 Brakes are Released
15:09 You Took off @ 150 Knots and Flaps at Position 3
Departure Weather
EDDF 131250Z 29011KT 260V340 9999 FEW048 BKN260 15/03 Q1030 NOSIGrn
15:09 Landing Gear Up @ 159 Knots and 390 Feet
15:10 Below FL100 you need to turn on the landing lights
15:11 You exceeded maximum bank angle
15:32 Below 10000 feet you are not allowed to go over 250 knots
15:53 Landing Gear Down @ 161 Knots and 2050 Feet
15:55 You Landed @ 133 Knots and with -400 Vertical Speed
Arrival Weather
EBBR 131320Z 28004KT 210V340 9999 SCT041 13/03 Q1032 NOSIGrn
16:04 Brakes are On
16:05 Brakes are Released
16:07 You are Airborne and your Beacons are off
16:07 You are Airborne and your Navigation Lights are off
16:07 Brussels Bel-Track1.0.0.9

Route Map

Corporate About Us Our Team Vacancies Information Fleet Route Network Rules and Regulations Operations Flight Schedules Event Center Tours Partners IVAO Vatsim Acars dev FSCB

fb Users Online No pilots online!
0 Pilot(s) and 113 Guest(s) Online
CMS by phpVMS - Design by Crazycreatives.com - Copyright © 2018 - Brussels Airlines Virtual